Time;durP1;ratioP1;P1;durP2;ratioP2;P2;SDS_P1;SDS_P2;PMS_P1;PMS_P2;Temp;Humidity;BMP_temperature;BMP_pressure;BME280_temperature;BME280_humidity;BME280_pressure;Samples;Min_cycle;Max_cycle;Signal;HPM_P1;HPM_P2
2021/10/14 00:02:17;;;;;;;11.25;7.30;;;;;;;10.29;76.84;101028.75;5053503;28;20109;-63
2021/10/14 00:05:00;;;;;;;11.30;6.82;;;;;;;10.29;77.07;101026.16;5053913;28;20455;-63
2021/10/14 00:07:47;;;;;;;14.90;7.38;;;;;;;10.29;76.85;101033.94;5053696;28;20079;-63
2021/10/14 00:10:31;;;;;;;13.25;6.90;;;;;;;10.30;76.84;101034.81;5038905;28;20420;-63
2021/10/14 00:13:18;;;;;;;;;;;;;;;10.29;76.62;101028.75;5053931;28;20122;-63
2021/10/14 00:16:04;;;;;;;12.52;7.47;;;;;;;10.28;76.75;101027.00;5038832;28;19923;-63
2021/10/14 00:18:49;;;;;;;15.05;7.55;;;;;;;10.29;76.98;101020.09;5038210;28;20044;-63
2021/10/14 00:21:33;;;;;;;15.68;8.60;;;;;;;10.29;77.22;101009.72;5038703;28;20060;-63
2021/10/14 00:24:16;;;;;;;15.25;7.45;;;;;;;10.28;77.11;101011.44;5038567;28;20044;-63
2021/10/14 00:27:00;;;;;;;11.80;7.47;;;;;;;10.28;77.07;101006.25;5038475;28;20079;-63
2021/10/14 00:29:44;;;;;;;12.55;7.85;;;;;;;10.29;76.74;101010.63;5053200;28;20392;-63
2021/10/14 00:32:28;;;;;;;12.00;7.40;;;;;;;10.28;76.89;101011.44;5053056;28;20052;-64
2021/10/14 00:35:12;;;;;;;12.30;7.43;;;;;;;10.27;76.65;101009.69;5053712;28;20040;-63
2021/10/14 00:37:56;;;;;;;14.63;8.10;;;;;;;10.29;76.79;101004.53;5053255;28;20063;-63
2021/10/14 00:40:40;;;;;;;14.55;7.63;;;;;;;10.28;76.71;101006.25;5053348;28;20036;-63
2021/10/14 00:43:24;;;;;;;;;;;;;;;10.27;76.90;101004.50;5038691;28;20112;-63
2021/10/14 00:46:18;;;;;;;16.08;8.38;;;;;;;10.26;77.09;101005.34;5038247;28;19919;-63
2021/10/14 00:49:03;;;;;;;;;;;;;;;10.26;76.76;101001.88;5038826;28;20044;-63
2021/10/14 00:51:47;;;;;;;10.52;7.65;;;;;;;10.25;76.88;101005.28;5052814;28;20017;-63
2021/10/14 00:54:31;;;;;;;;;;;;;;;10.24;77.07;101001.81;5038455;28;20124;-63
2021/10/14 00:57:16;;;;;;;12.82;8.43;;;;;;;10.24;76.94;101001.81;5037871;28;19950;-63
2021/10/14 01:00:02;;;;;;;17.23;8.27;;;;;;;10.24;76.89;100999.22;5038034;28;20519;-63
2021/10/14 01:02:46;;;;;;;16.88;8.52;;;;;;;10.25;77.14;100992.34;5031897;28;20096;-63
2021/10/14 01:05:30;;;;;;;16.23;8.52;;;;;;;10.26;76.92;100991.50;5032978;28;20115;-63
2021/10/14 01:08:17;;;;;;;13.63;8.02;;;;;;;10.25;76.89;100990.63;5033321;28;20057;-64
2021/10/14 01:11:03;;;;;;;13.15;8.00;;;;;;;10.27;77.13;100993.28;5032148;28;20179;-63
2021/10/14 01:13:48;;;;;;;15.25;8.43;;;;;;;10.27;76.88;100988.09;5033346;28;20405;-63
2021/10/14 01:16:43;;;;;;;17.55;8.80;;;;;;;10.26;76.97;100987.19;5037119;28;20608;-63
2021/10/14 01:19:27;;;;;;;12.30;7.60;;;;;;;10.26;77.07;100992.38;5036744;28;20056;-63
2021/10/14 01:22:11;;;;;;;;;;;;;;;10.25;77.05;100981.97;5037522;28;20060;-63
2021/10/14 01:24:55;;;;;;;15.35;8.38;;;;;;;10.26;77.12;100982.00;5036014;28;19919;-62
2021/10/14 01:27:39;;;;;;;17.90;9.05;;;;;;;10.24;76.99;100973.31;5036869;28;20072;-63
2021/10/14 01:30:24;;;;;;;15.70;8.43;;;;;;;10.25;77.24;100969.03;5036260;28;20086;-63
2021/10/14 01:33:08;;;;;;;13.50;8.13;;;;;;;10.24;76.92;100978.47;5035829;28;20416;-63
2021/10/14 01:35:52;;;;;;;21.80;8.32;;;;;;;10.25;77.29;100971.63;5036378;28;20123;-63
2021/10/14 01:38:36;;;;;;;;;;;;;;;10.24;76.70;100968.13;5036350;28;20052;-64
2021/10/14 01:41:20;;;;;;;14.10;9.07;;;;;;;10.24;77.09;100967.25;5035759;28;19919;-64
2021/10/14 01:44:07;;;;;;;15.93;8.98;;;;;;;10.24;76.80;100962.94;5036143;28;20052;-64
2021/10/14 01:46:57;;;;;;;12.82;8.30;;;;;;;10.25;77.11;100962.13;5035892;28;20156;-63
2021/10/14 01:49:41;;;;;;;16.90;8.55;;;;;;;10.25;76.95;100964.72;5035440;28;20133;-63
2021/10/14 01:52:25;;;;;;;14.65;7.95;;;;;;;10.24;76.80;100964.66;5036128;28;20044;-63
2021/10/14 01:55:09;;;;;;;13.15;8.35;;;;;;;10.23;76.92;100953.41;5035197;28;20187;-63
2021/10/14 01:57:59;;;;;;;12.45;8.85;;;;;;;10.24;76.72;100959.50;5035478;28;20068;-63
2021/10/14 02:00:44;;;;;;;19.60;9.38;;;;;;;10.24;76.75;100954.31;5035128;28;20053;-63
2021/10/14 02:03:28;;;;;;;12.00;8.73;;;;;;;10.24;76.89;100952.56;5034915;28;20103;-63
2021/10/14 02:06:12;;;;;;;14.68;8.38;;;;;;;10.24;76.81;100952.56;5035767;28;20125;-64
2021/10/14 02:08:56;;;;;;;11.60;7.70;;;;;;;10.23;77.03;100948.22;5035712;28;20125;-63
2021/10/14 02:11:40;;;;;;;18.75;9.18;;;;;;;10.24;76.93;100955.16;5035725;28;20044;-63
2021/10/14 02:14:24;;;;;;;14.82;8.73;;;;;;;10.25;77.08;100948.28;5035153;28;20179;-63
2021/10/14 02:17:08;;;;;;;15.75;8.98;;;;;;;10.23;76.65;100948.22;5034841;28;20087;-63
2021/10/14 02:19:52;;;;;;;15.77;10.00;;;;;;;10.25;76.65;100943.97;5035704;28;20047;-63
2021/10/14 02:22:36;;;;;;;15.65;8.88;;;;;;;10.25;76.84;100943.13;5036008;28;20037;-63
2021/10/14 02:25:23;;;;;;;;;;;;;;;10.23;76.98;100942.19;5035603;28;20092;-63
2021/10/14 02:28:07;;;;;;;21.98;8.60;;;;;;;10.21;76.71;100943.00;5034582;28;19935;-63
2021/10/14 02:30:51;;;;;;;17.58;9.07;;;;;;;10.23;76.68;100944.78;5034757;28;20538;-63
2021/10/14 02:33:35;;;;;;;12.35;7.60;;;;;;;10.24;76.68;100952.56;5035371;28;20115;-63
2021/10/14 02:36:19;;;;;;;16.35;9.00;;;;;;;10.22;76.61;100936.09;5035448;28;20044;-63
2021/10/14 02:39:04;;;;;;;14.13;9.23;;;;;;;10.21;76.77;100931.75;5035029;28;20052;-64
2021/10/14 02:41:48;;;;;;;15.63;8.63;;;;;;;10.21;76.71;100932.66;5035563;28;20045;-63
2021/10/14 02:44:32;;;;;;;21.35;9.40;;;;;;;10.21;76.67;100929.16;5035073;28;20499;-64
2021/10/14 02:47:16;;;;;;;;;;;;;;;10.19;76.90;100931.72;5034763;28;20095;-63
2021/10/14 02:50:00;;;;;;;15.70;8.40;;;;;;;10.19;77.07;100926.53;5033791;28;19931;-63
2021/10/14 02:52:44;;;;;;;17.85;10.13;;;;;;;10.20;76.88;100932.56;5035020;28;20052;-63
2021/10/14 02:55:30;;;;;;;14.80;8.70;;;;;;;10.21;77.00;100929.16;5034889;28;20417;-64
2021/10/14 02:58:20;;;;;;;17.35;8.90;;;;;;;10.21;76.91;100936.94;5034351;28;20125;-63
2021/10/14 03:01:04;;;;;;;14.52;9.90;;;;;;;10.21;76.73;100930.06;5034885;28;20175;-63
2021/10/14 03:03:48;;;;;;;15.27;8.98;;;;;;;10.21;76.70;100932.66;5035379;28;20171;-63
2021/10/14 03:06:35;;;;;;;17.30;9.90;;;;;;;10.21;76.80;100931.75;5034725;28;20044;-63
2021/10/14 03:09:19;;;;;;;13.68;9.68;;;;;;;10.21;76.78;100926.56;5034197;28;20048;-63
2021/10/14 03:12:03;;;;;;;21.35;9.98;;;;;;;10.21;76.81;100926.56;5034519;28;20096;-63
2021/10/14 03:14:47;;;;;;;14.68;8.95;;;;;;;10.20;76.87;100920.53;5034536;28;20562;-63
2021/10/14 03:17:31;;;;;;;14.85;9.50;;;;;;;10.19;76.74;100923.94;5034398;28;20135;-63
2021/10/14 03:20:18;;;;;;;21.23;9.57;;;;;;;10.19;76.66;100923.94;5034572;28;20409;-63
2021/10/14 03:23:02;;;;;;;15.02;9.90;;;;;;;10.20;77.04;100930.00;5034933;28;20099;-63
2021/10/14 03:25:46;;;;;;;17.58;9.40;;;;;;;10.20;76.80;100927.41;5034579;28;20049;-64
2021/10/14 03:28:31;;;;;;;18.42;8.82;;;;;;;10.20;76.90;100932.56;5033264;28;20056;-63
2021/10/14 03:31:15;;;;;;;16.40;9.40;;;;;;;10.19;76.87;100934.31;5033420;28;20048;-63
2021/10/14 03:33:58;;;;;;;20.92;9.38;;;;;;;10.20;76.51;100932.56;5034614;28;20104;-63
2021/10/14 03:36:42;;;;;;;19.23;10.07;;;;;;;10.20;76.85;100935.16;5033655;28;20543;-64
2021/10/14 03:39:26;;;;;;;13.35;8.75;;;;;;;10.20;76.59;100942.94;5034033;28;20051;-63
2021/10/14 03:42:10;;;;;;;15.27;9.00;;;;;;;10.20;76.49;100942.94;5033558;28;20055;-63
2021/10/14 03:44:54;;;;;;;19.33;9.68;;;;;;;10.19;76.79;100944.66;5034401;28;20052;-63
2021/10/14 03:47:38;;;;;;;17.80;8.32;;;;;;;10.19;76.86;100941.22;5034317;28;20148;-63
2021/10/14 03:50:25;;;;;;;13.80;7.88;;;;;;;10.17;76.51;100942.88;5033088;28;20056;-63
2021/10/14 03:53:09;;;;;;;10.40;7.63;;;;;;;10.18;76.57;100939.44;5033225;28;20049;-63
2021/10/14 03:55:53;;;;;;;14.73;8.80;;;;;;;10.18;76.39;100940.31;5033206;28;20052;-63
2021/10/14 03:58:37;;;;;;;14.10;8.15;;;;;;;10.18;76.47;100948.09;5034022;28;20052;-62
2021/10/14 04:01:23;;;;;;;13.13;8.23;;;;;;;10.19;76.64;100956.75;5034679;28;20043;-62
2021/10/14 04:04:07;;;;;;;18.98;7.90;;;;;;;10.18;76.80;100949.81;5038524;28;20094;-63
2021/10/14 04:06:51;;;;;;;15.32;7.88;;;;;;;10.17;76.69;100950.63;5038867;28;20084;-64
2021/10/14 04:09:38;;;;;;;14.73;7.32;;;;;;;10.18;76.33;100952.41;5053232;28;20044;-63
2021/10/14 04:12:23;;;;;;;10.90;6.85;;;;;;;10.17;76.35;100956.69;5038748;28;20055;-64
2021/10/14 04:15:07;;;;;;;;;;;;;;;10.17;76.60;100961.00;5053646;28;20543;-63
2021/10/14 04:17:54;;;;;;;13.93;6.55;;;;;;;10.14;76.73;100946.22;5053828;28;19919;-63
2021/10/14 04:20:40;;;;;;;17.52;6.75;;;;;;;10.16;76.73;100954.06;5038593;28;20095;-64
2021/10/14 04:23:27;;;;;;;9.20;6.63;;;;;;;10.15;76.33;100944.53;5053421;28;20048;-63
2021/10/14 04:26:12;;;;;;;11.85;7.50;;;;;;;10.15;76.62;100952.28;5053227;28;20099;-63
2021/10/14 04:28:56;;;;;;;9.63;6.60;;;;;;;10.15;76.64;100947.97;5038564;28;20075;-63
2021/10/14 04:31:40;;;;;;;11.65;6.70;;;;;;;10.15;76.61;100950.56;5052888;28;20522;-63
2021/10/14 04:34:24;;;;;;;12.90;6.88;;;;;;;10.17;76.16;100950.63;5053249;28;20098;-64
2021/10/14 04:37:08;;;;;;;10.25;6.47;;;;;;;10.16;76.17;100943.69;5053298;28;20055;-63
2021/10/14 04:39:52;;;;;;;14.45;7.07;;;;;;;10.16;76.50;100948.88;5038336;28;20126;-64
2021/10/14 04:42:36;;;;;;;10.95;6.03;;;;;;;10.16;76.51;100956.66;5053285;28;20064;-63
2021/10/14 04:45:20;;;;;;;15.50;6.53;;;;;;;10.17;76.18;100942.88;5053306;28;20105;-64
2021/10/14 04:48:07;;;;;;;10.55;6.57;;;;;;;10.16;76.48;100948.88;5054209;28;20051;-63
2021/10/14 04:50:51;;;;;;;14.65;7.28;;;;;;;10.15;76.39;100944.53;5042065;28;20113;-63
2021/10/14 04:53:37;;;;;;;11.85;5.78;;;;;;;10.16;76.50;100943.69;5056758;28;20064;-63
2021/10/14 04:56:21;;;;;;;10.90;6.15;;;;;;;10.14;76.66;100932.41;5057303;28;20107;-63
2021/10/14 04:59:05;;;;;;;17.13;7.15;;;;;;;10.14;76.09;100935.00;5042317;28;20405;-63
2021/10/14 05:01:49;;;;;;;11.55;6.10;;;;;;;10.14;76.14;100940.19;5056924;28;20064;-64
2021/10/14 05:04:36;;;;;;;9.77;5.45;;;;;;;10.15;76.29;100939.34;5042377;28;20047;-63
2021/10/14 05:07:20;;;;;;;11.95;6.45;;;;;;;10.14;76.37;100942.75;5042314;28;20094;-63
2021/10/14 05:10:04;;;;;;;10.35;5.45;;;;;;;10.14;76.05;100938.44;5041942;28;20051;-63
2021/10/14 05:12:49;;;;;;;12.35;6.80;;;;;;;10.13;76.25;100926.31;5041899;28;20526;-63
2021/10/14 05:15:33;;;;;;;10.73;6.47;;;;;;;10.15;76.05;100939.34;5056621;28;20107;-63
2021/10/14 05:18:20;;;;;;;;;;;;;;;10.11;76.06;100932.31;5057167;28;20416;-63
2021/10/14 05:21:04;;;;;;;11.82;5.90;;;;;;;10.11;76.25;100929.72;5056784;28;19935;-64
2021/10/14 05:23:51;;;;;;;9.55;5.40;;;;;;;10.11;76.18;100930.59;5042176;28;20052;-62
2021/10/14 05:26:35;;;;;;;10.75;5.65;;;;;;;10.13;76.48;100938.41;5056525;28;20068;-63
2021/10/14 05:29:19;;;;;;;12.02;6.03;;;;;;;10.12;76.09;100934.94;5056700;28;20048;-63
2021/10/14 05:32:03;;;;;;;11.63;5.75;;;;;;;10.11;76.14;100938.38;5056367;28;20047;-64
2021/10/14 05:34:47;;;;;;;10.60;6.30;;;;;;;10.11;76.10;100934.88;5041266;28;20081;-63
2021/10/14 05:37:30;;;;;;;10.45;7.47;;;;;;;10.10;76.22;100935.72;5056548;28;20607;-63
2021/10/14 05:40:14;;;;;;;17.08;6.65;;;;;;;10.10;76.15;100936.63;5056572;28;20056;-63
2021/10/14 05:42:59;;;;;;;13.40;6.70;;;;;;;10.09;76.29;100940.03;5041669;28;20047;-63
2021/10/14 05:45:47;;;;;;;14.18;7.22;;;;;;;10.10;76.27;100938.31;5041242;28;20044;-63
2021/10/14 05:48:31;;;;;;;11.13;7.70;;;;;;;10.09;75.97;100931.38;5041554;28;20059;-63
2021/10/14 05:51:15;;;;;;;;;;;;;;;10.06;76.33;100933.03;5041422;28;20091;-63
2021/10/14 05:54:01;;;;;;;10.45;6.65;;;;;;;10.07;76.32;100926.16;5056441;28;19923;-63
2021/10/14 05:56:45;;;;;;;19.15;9.27;;;;;;;10.08;76.36;100927.91;5041250;28;20044;-63
2021/10/14 05:59:31;;;;;;;11.90;7.40;;;;;;;10.09;76.44;100927.09;5055425;28;20449;-63
2021/10/14 06:02:16;;;;;;;11.73;8.30;;;;;;;10.10;76.25;100923.66;5055873;28;20098;-63
2021/10/14 06:05:00;;;;;;;10.43;7.50;;;;;;;10.09;76.54;100928.78;5055811;28;20170;-63
2021/10/14 06:07:44;;;;;;;16.35;8.73;;;;;;;10.09;76.21;100929.66;5055889;28;20052;-63
2021/10/14 06:10:28;;;;;;;13.70;8.93;;;;;;;10.09;76.36;100924.50;5040831;28;20047;-63
2021/10/14 06:13:12;;;;;;;;;;;;;;;10.09;76.40;100936.53;5055986;28;20071;-63
2021/10/14 06:15:56;;;;;;;15.07;8.15;;;;;;;10.09;76.44;100926.19;5055680;28;20402;-63
2021/10/14 06:18:40;;;;;;;;;;;;;;;10.08;76.13;100927.00;5056237;28;20095;-63
2021/10/14 06:21:24;;;;;;;19.52;9.57;;;;;;;10.08;76.17;100935.69;5056260;28;19923;-63
2021/10/14 06:24:10;;;;;;;16.77;8.95;;;;;;;10.08;76.24;100929.59;5055380;28;20106;-63
2021/10/14 06:26:55;;;;;;;15.25;9.13;;;;;;;10.09;76.41;100931.38;5040500;28;20075;-64
2021/10/14 06:29:40;;;;;;;15.80;9.48;;;;;;;10.09;76.37;100926.19;5040084;28;20048;-63
2021/10/14 06:32:27;;;;;;;16.75;9.95;;;;;;;10.08;76.27;100922.72;5055506;28;20047;-63
2021/10/14 06:35:11;;;;;;;11.35;9.80;;;;;;;10.10;76.33;100921.06;5040329;28;20052;-63
2021/10/14 06:37:58;;;;;;;17.30;9.38;;;;;;;10.10;76.35;100926.25;5055423;28;20059;-63
2021/10/14 06:40:43;;;;;;;12.52;9.15;;;;;;;10.11;76.21;100927.13;5055260;28;20060;-63
2021/10/14 06:43:27;;;;;;;18.23;9.45;;;;;;;10.10;76.27;100925.34;5040573;28;20056;-64
2021/10/14 06:46:11;;;;;;;14.32;8.45;;;;;;;10.09;76.05;100927.09;5055221;28;20052;-63
2021/10/14 06:48:55;;;;;;;17.42;8.00;;;;;;;10.11;76.38;100922.84;5054971;28;20478;-63
2021/10/14 06:51:39;;;;;;;18.23;8.65;;;;;;;10.11;76.25;100925.44;5054967;28;20048;-63
2021/10/14 06:54:25;;;;;;;24.52;8.35;;;;;;;10.10;76.28;100922.75;5040357;28;20412;-64
2021/10/14 06:57:10;;;;;;;27.95;13.55;;;;;;;10.10;76.10;100922.75;5040233;28;20132;-63
2021/10/14 06:59:54;;;;;;;;;;;;;;;10.09;76.07;100916.72;5055594;28;20044;-64
2021/10/14 07:02:38;;;;;;;46.85;24.02;;;;;;;10.09;75.97;100919.31;5039598;28;20066;-63
2021/10/14 07:05:22;;;;;;;40.25;19.77;;;;;;;10.09;76.37;100923.59;5040130;28;20047;-62
2021/10/14 07:08:08;;;;;;;37.50;15.93;;;;;;;10.09;76.39;100921.00;5054866;28;20091;-63
2021/10/14 07:10:58;;;;;;;20.92;12.60;;;;;;;10.08;76.15;100920.13;5039596;28;20416;-64
2021/10/14 07:13:45;;;;;;;22.75;12.48;;;;;;;10.08;76.22;100924.41;5054166;28;20048;-63
2021/10/14 07:16:34;;;;;;;17.88;8.77;;;;;;;10.09;76.00;100918.41;5039650;28;20411;-63
2021/10/14 07:19:18;;;;;;;16.10;7.80;;;;;;;10.06;76.15;100916.63;5054830;28;20039;-62
2021/10/14 07:22:04;;;;;;;11.05;7.22;;;;;;;10.04;75.96;100918.28;5039317;28;20056;-63
2021/10/14 07:24:54;;;;;;;12.98;7.72;;;;;;;10.06;75.78;100914.91;5039617;28;20047;-62
2021/10/14 07:27:40;;;;;;;15.18;7.40;;;;;;;10.06;75.79;100919.22;5054292;28;20060;-58
2021/10/14 07:30:29;;;;;;;14.73;7.43;;;;;;;10.06;76.08;100920.06;5054239;28;20191;-63
2021/10/14 07:33:18;;;;;;;12.80;7.18;;;;;;;10.06;76.12;100919.22;5039296;28;20095;-63
2021/10/14 07:36:08;;;;;;;17.02;7.45;;;;;;;10.08;75.99;100921.84;5054546;28;20083;-63
2021/10/14 07:38:53;;;;;;;12.15;6.80;;;;;;;10.08;76.11;100925.31;5054098;28;20559;-63
2021/10/14 07:41:39;;;;;;;16.20;7.35;;;;;;;10.09;76.03;100918.41;5054549;28;20155;-63
2021/10/14 07:44:23;;;;;;;19.63;7.15;;;;;;;10.09;75.90;100923.59;5039001;28;20047;-63
2021/10/14 07:47:07;;;;;;;14.23;7.10;;;;;;;10.08;75.86;100919.25;5054617;28;20051;-63
2021/10/14 07:49:54;;;;;;;;;;;;;;;10.07;76.10;100915.78;5039716;28;20051;-63
2021/10/14 07:52:46;;;;;;;11.63;6.40;;;;;;;10.09;75.76;100918.41;5038594;28;19924;-63
2021/10/14 07:55:37;;;;;;;15.60;6.65;;;;;;;10.09;75.79;100915.81;5053453;28;20110;-63
2021/10/14 07:58:24;;;;;;;11.23;5.97;;;;;;;10.10;75.87;100915.00;5053822;28;20511;-63
2021/10/14 08:01:13;;;;;;;13.27;6.43;;;;;;;10.11;75.90;100911.56;5039190;28;20055;-64
2021/10/14 08:04:05;;;;;;;10.25;5.90;;;;;;;10.12;75.83;100918.53;5038816;28;20128;-63
2021/10/14 08:06:52;;;;;;;8.80;5.30;;;;;;;10.13;75.98;100921.16;5038777;28;20056;-63
2021/10/14 08:09:36;;;;;;;9.48;6.15;;;;;;;10.15;75.94;100926.41;5038751;28;20411;-63
2021/10/14 08:12:22;;;;;;;15.43;6.38;;;;;;;10.16;76.01;100930.75;5039047;28;20052;-63
2021/10/14 08:15:10;;;;;;;12.02;5.88;;;;;;;10.16;76.07;100928.16;5038417;28;20071;-63
2021/10/14 08:17:59;;;;;;;11.95;5.50;;;;;;;10.16;75.79;100930.75;5053464;28;20048;-63
2021/10/14 08:20:44;;;;;;;11.77;5.80;;;;;;;10.16;75.50;100933.34;5053697;28;20126;-63
2021/10/14 08:23:28;;;;;;;9.73;5.20;;;;;;;10.16;75.97;100929.03;5037953;28;20538;-63
2021/10/14 08:26:18;;;;;;;8.02;5.05;;;;;;;10.16;76.00;100929.03;5053800;28;20105;-63
2021/10/14 08:29:07;;;;;;;10.13;5.30;;;;;;;10.17;76.19;100930.78;5053522;28;20174;-63
2021/10/14 08:31:56;;;;;;;10.32;4.72;;;;;;;10.18;75.92;100921.31;5053393;28;20102;-63
2021/10/14 08:34:42;;;;;;;7.93;5.35;;;;;;;10.18;76.04;100922.19;5053198;28;20045;-63
2021/10/14 08:37:32;;;;;;;15.80;6.93;;;;;;;10.19;76.14;100925.66;5038544;28;20578;-63
2021/10/14 08:40:22;;;;;;;8.95;5.57;;;;;;;10.20;75.96;100928.28;5053004;28;20415;-64
2021/10/14 08:43:13;;;;;;;7.80;5.57;;;;;;;10.24;75.78;100926.66;5038591;28;20060;-63
2021/10/14 08:46:04;;;;;;;11.07;6.20;;;;;;;10.26;75.89;100927.59;5038565;28;20051;-63
2021/10/14 08:48:48;;;;;;;9.65;5.32;;;;;;;10.27;76.01;100937.13;5037931;28;20091;-63
2021/10/14 08:51:33;;;;;;;9.00;5.70;;;;;;;10.30;76.08;100926.88;5053220;28;20056;-63
2021/10/14 08:54:23;;;;;;;10.43;5.68;;;;;;;10.32;76.04;100929.50;5053137;28;20470;-64
2021/10/14 08:57:08;;;;;;;7.75;5.35;;;;;;;10.32;75.86;100921.72;5038038;28;20048;-63
2021/10/14 08:59:58;;;;;;;7.95;5.43;;;;;;;10.34;76.03;100918.38;5037685;28;20087;-63
2021/10/14 09:02:42;;;;;;;10.90;5.90;;;;;;;10.36;75.92;100924.47;5037816;28;20052;-63
2021/10/14 09:05:47;;;;;;;14.10;6.00;;;;;;;10.39;76.09;100922.84;5053350;28;20519;-63
2021/10/14 09:08:32;;;;;;;;;;;;;;;10.40;75.69;100915.13;5053214;28;20463;-63
2021/10/14 09:11:25;;;;;;;15.43;7.20;;;;;;;10.42;76.12;100913.47;5038196;28;20046;-63
2021/10/14 09:14:12;;;;;;;16.95;7.10;;;;;;;10.44;76.03;100918.69;5053348;28;20186;-63
2021/10/14 09:16:59;;;;;;;11.00;6.43;;;;;;;10.47;75.72;100911.00;5053233;28;20047;-63
2021/10/14 09:19:46;;;;;;;7.88;6.38;;;;;;;10.50;75.79;100911.97;5053077;28;20095;-63
2021/10/14 09:22:54;;;;;;;10.35;6.45;;;;;;;10.55;75.67;100906.91;5037750;28;20040;-63
2021/10/14 09:25:41;;;;;;;10.00;6.60;;;;;;;10.56;76.12;100913.84;5038233;28;20068;-63
2021/10/14 09:28:27;;;;;;;9.27;5.90;;;;;;;10.61;75.60;100908.81;5037907;28;20095;-63
2021/10/14 09:31:14;;;;;;;12.98;6.57;;;;;;;10.62;75.72;100907.97;5052713;28;20523;-63
2021/10/14 09:33:59;;;;;;;9.75;7.30;;;;;;;10.66;75.69;100907.25;5052578;28;20048;-64
2021/10/14 09:36:49;;;;;;;11.32;7.18;;;;;;;10.67;75.79;100901.22;5056334;28;20056;-63
2021/10/14 09:39:33;;;;;;;11.27;7.30;;;;;;;10.70;75.61;100903.91;5056296;28;20067;-63
2021/10/14 09:42:36;;;;;;;;;;;;;;;10.69;75.72;100904.75;5057093;28;20557;-63
2021/10/14 09:45:25;;;;;;;11.13;6.85;;;;;;;10.71;75.52;100902.19;5041275;28;20050;-63
2021/10/14 09:48:14;;;;;;;13.88;8.60;;;;;;;10.72;76.04;100898.75;5041016;28;20048;-63
2021/10/14 09:51:00;;;;;;;11.77;6.95;;;;;;;10.72;75.92;100898.75;5041296;28;20052;-64
2021/10/14 09:53:53;;;;;;;11.35;7.72;;;;;;;10.72;75.64;100898.75;5056180;28;20048;-63
2021/10/14 09:56:38;;;;;;;9.77;8.13;;;;;;;10.71;75.54;100900.47;5056476;28;20048;-64
2021/10/14 09:59:22;;;;;;;;;;;;;;;10.70;75.53;100898.72;5056511;28;20107;-63
2021/10/14 10:02:06;;;;;;;14.57;7.53;;;;;;;10.71;75.85;100899.59;5040999;28;19970;-64
2021/10/14 10:04:51;;;;;;;9.85;7.05;;;;;;;10.71;75.50;100891.81;5056072;28;20052;-63
2021/10/14 10:07:39;;;;;;;14.95;8.07;;;;;;;10.72;75.62;100896.16;5055768;28;20043;-63
2021/10/14 10:10:26;;;;;;;17.35;7.65;;;;;;;10.74;75.84;100897.09;5055758;28;20595;-63
2021/10/14 10:13:12;;;;;;;21.13;7.88;;;;;;;10.75;75.55;100889.34;5040395;28;20412;-63
2021/10/14 10:16:19;;;;;;;12.23;8.13;;;;;;;10.76;75.93;100893.69;5055775;28;20056;-63
2021/10/14 10:19:07;;;;;;;13.95;7.60;;;;;;;10.79;76.05;100885.16;5055826;28;20059;-63
2021/10/14 10:21:54;;;;;;;12.98;8.63;;;;;;;10.80;75.57;100892.97;5055351;28;20051;-63
2021/10/14 10:24:46;;;;;;;12.40;7.90;;;;;;;10.84;75.60;100893.06;5055778;28;20040;-63
2021/10/14 10:27:41;;;;;;;14.40;8.27;;;;;;;10.84;75.83;100880.94;5040528;28;20075;-64
2021/10/14 10:30:39;;;;;;;14.63;8.23;;;;;;;10.89;75.88;100886.28;5055581;28;20052;-63
2021/10/14 10:33:59;;;;;;;12.77;8.15;;;;;;;10.91;75.53;100882.91;5055461;28;20036;-63
2021/10/14 10:36:48;;;;;;;14.38;7.97;;;;;;;10.95;75.86;100876.06;5040559;28;20071;-63
2021/10/14 10:39:47;;;;;;;11.77;7.90;;;;;;;10.97;75.54;100877.00;5040757;28;20116;-63
2021/10/14 10:42:39;;;;;;;13.70;7.47;;;;;;;11.00;75.59;100890.06;5040231;28;20108;-63
2021/10/14 10:45:49;;;;;;;12.18;7.57;;;;;;;11.01;75.59;100880.53;5040055;28;20412;-64
2021/10/14 10:48:41;;;;;;;13.40;7.78;;;;;;;11.02;75.54;100875.41;5054801;28;20508;-63
2021/10/14 10:51:35;;;;;;;11.98;7.25;;;;;;;11.04;75.83;100876.34;5040479;28;20056;-63
2021/10/14 10:54:40;;;;;;;12.77;7.80;;;;;;;11.04;75.91;100878.94;5055367;28;20056;-63
2021/10/14 10:57:43;;;;;;;;;;;;;;;11.03;75.78;100872.00;5040246;28;20079;-64
2021/10/14 11:00:31;;;;;;;10.73;7.90;;;;;;;11.05;75.70;100867.72;5039865;28;19924;-62
2021/10/14 11:03:24;;;;;;;14.73;7.22;;;;;;;11.06;75.54;100866.00;5039697;28;20568;-63
2021/10/14 11:06:09;;;;;;;10.13;7.50;;;;;;;11.07;75.75;100865.16;5039774;28;20052;-64
2021/10/14 11:09:04;;;;;;;9.52;6.75;;;;;;;11.07;75.52;100859.97;5040002;28;20499;-63
2021/10/14 11:12:05;;;;;;;9.77;6.28;;;;;;;11.07;75.58;100855.66;5054940;28;20523;-63
2021/10/14 11:14:58;;;;;;;12.52;7.03;;;;;;;11.07;75.60;100853.06;5054542;28;20150;-63
2021/10/14 11:17:45;;;;;;;9.80;7.03;;;;;;;11.10;75.84;100852.28;5054237;28;20067;-64
2021/10/14 11:20:34;;;;;;;10.40;6.97;;;;;;;11.10;75.51;100850.56;5039561;28;20515;-62
2021/10/14 11:23:20;;;;;;;12.85;7.65;;;;;;;11.10;75.44;100847.09;5039931;28;20395;-63
2021/10/14 11:26:29;;;;;;;10.63;7.22;;;;;;;11.12;75.52;100840.22;5054851;28;20087;-63
2021/10/14 11:29:26;;;;;;;11.45;6.63;;;;;;;11.12;75.78;100828.13;5039739;28;20519;-63
2021/10/14 11:32:15;;;;;;;7.82;6.50;;;;;;;11.13;75.72;100829.00;5054588;28;20073;-63
2021/10/14 11:35:08;;;;;;;9.75;6.07;;;;;;;11.14;75.65;100830.75;5039274;28;20048;-63
2021/10/14 11:38:07;;;;;;;9.98;6.60;;;;;;;11.14;75.74;100822.97;5038966;28;20071;-63
2021/10/14 11:40:54;;;;;;;12.85;6.82;;;;;;;11.16;75.92;100817.84;5039523;28;20043;-63
2021/10/14 11:43:38;;;;;;;12.15;6.20;;;;;;;11.15;75.59;100809.16;5039316;28;20534;-64
2021/10/14 11:46:26;;;;;;;9.07;6.80;;;;;;;11.16;75.91;100805.72;5039003;28;20570;-63
2021/10/14 11:49:11;;;;;;;11.02;6.93;;;;;;;11.17;75.54;100806.63;5038876;28;20099;-63
2021/10/14 11:52:00;;;;;;;9.38;5.85;;;;;;;11.18;75.60;100810.97;5054077;28;20068;-63
2021/10/14 11:54:44;;;;;;;11.48;6.15;;;;;;;11.17;75.93;100802.28;5038971;28;20048;-63
2021/10/14 11:57:30;;;;;;;8.95;6.13;;;;;;;11.20;75.89;100804.09;5038363;28;20573;-63
2021/10/14 12:00:17;;;;;;;9.68;5.40;;;;;;;11.19;75.54;100791.97;5054033;28;20083;-63
2021/10/14 12:03:01;;;;;;;9.07;5.72;;;;;;;11.20;75.59;100801.50;5038674;28;20557;-63
2021/10/14 12:05:49;;;;;;;;;;;;;;;11.20;75.89;100792.00;5039113;28;20091;-62
2021/10/14 12:08:37;;;;;;;9.05;6.03;;;;;;;11.20;75.72;100796.31;5053580;28;19924;-63
2021/10/14 12:11:25;;;;;;;7.28;4.97;;;;;;;11.20;76.00;100786.81;5053524;28;20561;-63
2021/10/14 12:14:09;;;;;;;9.05;5.60;;;;;;;11.21;75.82;100783.38;5038957;28;20102;-63
2021/10/14 12:17:10;;;;;;;9.18;6.05;;;;;;;11.23;75.96;100775.63;5038169;28;20455;-63
2021/10/14 12:19:54;;;;;;;8.27;5.10;;;;;;;11.23;75.61;100781.69;5038734;28;20052;-63
2021/10/14 12:22:44;;;;;;;6.75;4.75;;;;;;;11.25;75.73;100769.66;5053130;28;20175;-63
2021/10/14 12:25:35;;;;;;;7.65;5.68;;;;;;;11.25;75.76;100769.66;5038667;28;20059;-64
2021/10/14 12:28:25;;;;;;;10.27;5.85;;;;;;;11.27;76.03;100767.09;5053377;28;20048;-63
2021/10/14 12:31:13;;;;;;;8.80;5.70;;;;;;;11.29;75.79;100767.13;5053187;28;20519;-63
2021/10/14 12:33:58;;;;;;;9.27;5.22;;;;;;;11.31;76.08;100757.66;5038402;28;20052;-63
2021/10/14 12:36:48;;;;;;;7.72;4.63;;;;;;;11.31;75.85;100752.44;5038385;28;20118;-64
2021/10/14 12:39:35;;;;;;;6.70;5.03;;;;;;;11.33;75.98;100750.78;5052875;28;20527;-63
2021/10/14 12:42:51;;;;;;;9.52;5.32;;;;;;;11.32;75.74;100746.44;5053477;28;20080;-64
2021/10/14 12:49:10;;;;;;;8.05;5.03;;;;;;;11.35;75.56;100750.00;5053613;28;20098;-63
2021/10/14 12:51:56;;;;;;;9.30;5.28;;;;;;;11.34;75.67;100747.34;5053433;28;20052;-63
2021/10/14 12:54:44;;;;;;;9.13;4.30;;;;;;;11.33;75.97;100741.28;5053360;28;20056;-64
2021/10/14 13:01:13;;;;;;;8.20;4.82;;;;;;;11.33;75.64;100733.50;5053108;28;20051;-64
2021/10/14 13:03:57;;;;;;;13.68;5.43;;;;;;;11.33;75.72;100741.28;5038278;28;20064;-63